createdAt,value
2017-11-30T00:00:05.593Z,0.00
2017-11-30T00:01:11.606Z,0.00
2017-11-30T00:02:17.665Z,0.00
2017-11-30T00:03:23.767Z,0.00
2017-11-30T00:04:29.803Z,0.00
2017-11-30T00:05:35.939Z,0.00
2017-11-30T00:06:42.510Z,0.00
2017-11-30T00:07:47.990Z,0.00
2017-11-30T00:08:54.073Z,0.00
2017-11-30T00:10:00.124Z,0.00
2017-11-30T00:11:06.271Z,0.00
2017-11-30T00:12:12.240Z,0.00
2017-11-30T00:13:18.323Z,0.00
2017-11-30T00:14:24.433Z,0.00
2017-11-30T00:15:30.444Z,0.00
2017-11-30T00:16:36.493Z,0.00
2017-11-30T00:17:42.584Z,0.00
2017-11-30T00:18:48.635Z,0.00
2017-11-30T00:19:54.785Z,0.00
2017-11-30T00:21:00.738Z,0.00
2017-11-30T00:22:06.810Z,0.00
2017-11-30T00:23:12.896Z,0.00
2017-11-30T00:24:18.923Z,0.00
2017-11-30T00:25:25.027Z,0.00
2017-11-30T00:26:31.061Z,0.00
2017-11-30T00:27:37.108Z,0.00
2017-11-30T00:28:43.528Z,0.00
2017-11-30T00:29:49.252Z,0.00
2017-11-30T00:30:55.310Z,0.00
2017-11-30T00:32:01.464Z,0.00
2017-11-30T00:33:07.437Z,0.00
2017-11-30T00:34:13.536Z,0.00
2017-11-30T00:35:19.748Z,0.00
2017-11-30T00:36:25.719Z,0.00
2017-11-30T00:37:31.837Z,0.00
2017-11-30T00:38:37.785Z,0.00
2017-11-30T00:39:43.835Z,0.00
2017-11-30T00:40:49.992Z,0.00
2017-11-30T00:41:55.964Z,0.00
2017-11-30T00:43:02.041Z,0.00
2017-11-30T00:44:08.122Z,0.00
2017-11-30T00:45:14.175Z,0.00
2017-11-30T00:46:20.223Z,0.00
2017-11-30T00:47:26.296Z,0.00
2017-11-30T00:48:32.400Z,0.00
2017-11-30T00:49:38.579Z,0.00
2017-11-30T00:50:44.498Z,0.00
2017-11-30T00:51:50.582Z,0.00
2017-11-30T00:52:56.629Z,0.00
2017-11-30T00:54:02.832Z,0.00
2017-11-30T00:55:08.795Z,0.00
2017-11-30T00:56:14.901Z,0.00
2017-11-30T00:57:20.897Z,0.00
2017-11-30T00:58:27.001Z,0.00
2017-11-30T00:59:33.084Z,0.00
2017-11-30T01:00:39.274Z,0.00
2017-11-30T01:01:45.178Z,0.00
2017-11-30T01:02:51.248Z,0.00
2017-11-30T01:03:57.345Z,0.00
2017-11-30T01:05:03.367Z,0.00
2017-11-30T01:06:09.454Z,0.00
2017-11-30T01:07:15.510Z,0.00
2017-11-30T01:08:21.569Z,0.00
2017-11-30T01:09:27.660Z,0.00
2017-11-30T01:10:33.739Z,0.00
2017-11-30T01:11:39.765Z,0.00
2017-11-30T01:12:45.841Z,0.00
2017-11-30T01:13:52.245Z,0.00
2017-11-30T01:14:58.977Z,0.00
2017-11-30T01:16:04.087Z,0.00
2017-11-30T01:17:10.136Z,0.00
2017-11-30T01:18:16.290Z,0.00
2017-11-30T01:19:22.261Z,0.00
2017-11-30T01:20:28.457Z,0.00
2017-11-30T01:21:34.444Z,0.00
2017-11-30T01:22:40.466Z,0.00
2017-11-30T01:23:46.560Z,0.00
2017-11-30T01:24:52.581Z,0.00
2017-11-30T01:25:58.730Z,0.00
2017-11-30T01:27:04.778Z,0.00
2017-11-30T01:28:10.976Z,0.00
2017-11-30T01:29:17.131Z,0.00
2017-11-30T01:30:22.931Z,0.00
2017-11-30T01:31:29.148Z,0.00
2017-11-30T01:32:35.199Z,0.00
2017-11-30T01:33:41.153Z,0.00
2017-11-30T01:34:47.231Z,0.00
2017-11-30T01:35:53.347Z,0.00
2017-11-30T01:36:59.326Z,0.00
2017-11-30T01:38:05.408Z,0.00
2017-11-30T01:39:11.535Z,0.00
2017-11-30T01:40:17.528Z,0.00
2017-11-30T01:41:23.691Z,0.00
2017-11-30T01:42:29.769Z,0.00
2017-11-30T01:43:36.405Z,0.00
2017-11-30T01:44:41.847Z,0.00
2017-11-30T01:45:47.881Z,0.00
2017-11-30T01:46:53.999Z,0.00
2017-11-30T01:48:00.025Z,0.00
2017-11-30T01:49:06.114Z,0.00
2017-11-30T01:50:12.176Z,0.00
2017-11-30T01:51:18.265Z,0.00
2017-11-30T01:52:24.344Z,0.00
2017-11-30T01:53:30.375Z,0.00
2017-11-30T01:54:36.822Z,0.00
2017-11-30T01:55:42.561Z,0.00
2017-11-30T01:56:48.571Z,0.00
2017-11-30T01:57:54.624Z,0.00
2017-11-30T01:59:00.733Z,0.00
2017-11-30T02:00:06.929Z,0.00
2017-11-30T02:01:12.904Z,0.00
2017-11-30T02:02:18.955Z,0.00
2017-11-30T02:03:25.006Z,0.00
2017-11-30T02:04:31.038Z,0.00
2017-11-30T02:05:37.068Z,0.00
2017-11-30T02:06:43.225Z,0.00
2017-11-30T02:07:49.360Z,0.00
2017-11-30T02:08:55.607Z,0.00
2017-11-30T02:10:01.475Z,0.00
2017-11-30T02:11:07.863Z,0.00
2017-11-30T02:12:13.502Z,0.00
2017-11-30T02:13:19.551Z,0.00
2017-11-30T02:14:25.564Z,0.00
2017-11-30T02:15:31.604Z,0.00
2017-11-30T02:16:37.695Z,0.00
2017-11-30T02:17:43.727Z,0.00
2017-11-30T02:18:49.864Z,0.00
2017-11-30T02:19:56.031Z,0.00
2017-11-30T02:21:01.892Z,0.00
2017-11-30T02:22:08.043Z,0.00
2017-11-30T02:23:14.161Z,0.00
2017-11-30T02:24:22.097Z,0.00
2017-11-30T02:25:26.185Z,0.00
2017-11-30T02:26:32.200Z,0.00
2017-11-30T02:27:38.249Z,0.00
2017-11-30T02:28:44.303Z,0.00
2017-11-30T02:29:50.379Z,0.00
2017-11-30T02:30:56.636Z,0.00
2017-11-30T02:32:02.594Z,0.00
2017-11-30T02:33:08.628Z,0.00
2017-11-30T02:34:14.643Z,0.00
2017-11-30T02:35:21.237Z,0.00
2017-11-30T02:36:26.779Z,0.00
2017-11-30T02:37:32.833Z,0.00
2017-11-30T02:38:38.879Z,0.00
2017-11-30T02:39:44.961Z,0.00
2017-11-30T02:40:51.088Z,0.00
2017-11-30T02:41:57.056Z,0.00
2017-11-30T02:43:03.154Z,0.00
2017-11-30T02:44:09.204Z,0.00
2017-11-30T02:45:16.807Z,0.00
2017-11-30T02:46:21.398Z,0.00
2017-11-30T02:47:27.374Z,0.00
2017-11-30T02:48:33.515Z,0.00
2017-11-30T02:49:39.500Z,0.00
2017-11-30T02:50:45.538Z,0.00
2017-11-30T02:51:51.675Z,0.00
2017-11-30T02:52:57.674Z,0.00
2017-11-30T02:54:03.745Z,0.00
2017-11-30T02:55:09.759Z,0.00
2017-11-30T02:56:15.820Z,0.00
2017-11-30T02:57:21.984Z,0.00
2017-11-30T02:58:27.949Z,0.00
2017-11-30T02:59:34.004Z,0.00
2017-11-30T03:00:40.052Z,0.00
2017-11-30T03:01:46.106Z,0.00
2017-11-30T03:02:52.358Z,0.00
2017-11-30T03:03:58.207Z,0.00
2017-11-30T03:05:04.279Z,0.00
2017-11-30T03:06:10.399Z,0.00
2017-11-30T03:07:16.444Z,0.00
2017-11-30T03:08:22.430Z,0.00
2017-11-30T03:09:28.494Z,0.00
2017-11-30T03:10:34.605Z,0.00
2017-11-30T03:11:40.582Z,0.00
2017-11-30T03:12:46.633Z,0.00
2017-11-30T03:13:52.713Z,0.00
2017-11-30T03:14:58.763Z,0.00
2017-11-30T03:16:04.911Z,0.00
2017-11-30T03:17:10.852Z,0.00
2017-11-30T03:18:16.934Z,0.00
2017-11-30T03:19:23.049Z,0.00
2017-11-30T03:20:29.014Z,0.00
2017-11-30T03:21:35.067Z,0.00
2017-11-30T03:22:41.112Z,0.00
2017-11-30T03:23:47.181Z,0.00
2017-11-30T03:24:53.270Z,0.00
2017-11-30T03:25:59.281Z,0.00
2017-11-30T03:27:05.314Z,0.00
2017-11-30T03:28:11.961Z,0.00
2017-11-30T03:29:17.657Z,0.00
2017-11-30T03:30:23.482Z,0.00
2017-11-30T03:31:29.525Z,0.00
2017-11-30T03:32:35.670Z,0.00
2017-11-30T03:33:41.633Z,0.00
2017-11-30T03:34:47.700Z,0.00
2017-11-30T03:35:53.781Z,0.00
2017-11-30T03:36:59.781Z,0.00
2017-11-30T03:38:06.017Z,0.00
2017-11-30T03:39:12.023Z,0.00
2017-11-30T03:40:18.182Z,0.00
2017-11-30T03:41:24.015Z,0.00
2017-11-30T03:42:30.059Z,0.00
2017-11-30T03:43:36.160Z,0.00
2017-11-30T03:44:42.185Z,0.00
2017-11-30T03:45:48.260Z,0.00
2017-11-30T03:46:54.382Z,0.00
2017-11-30T03:48:00.359Z,0.00
2017-11-30T03:49:06.481Z,0.00
2017-11-30T03:50:12.492Z,0.00
2017-11-30T03:51:18.605Z,0.00
2017-11-30T03:52:24.573Z,0.00
2017-11-30T03:53:30.628Z,0.00
2017-11-30T03:54:36.702Z,0.00
2017-11-30T03:55:42.757Z,0.00
2017-11-30T03:56:48.826Z,0.00
2017-11-30T03:57:54.858Z,0.00
2017-11-30T03:59:00.945Z,0.00
2017-11-30T04:00:07.022Z,0.00
2017-11-30T04:01:13.249Z,0.00
2017-11-30T04:02:19.269Z,0.00
2017-11-30T04:03:25.245Z,0.00
2017-11-30T04:04:31.730Z,0.00
2017-11-30T04:05:37.256Z,0.00
2017-11-30T04:06:43.341Z,0.00
2017-11-30T04:07:49.445Z,0.00
2017-11-30T04:08:56.425Z,0.00
2017-11-30T04:10:01.485Z,0.00
2017-11-30T04:11:07.517Z,0.00
2017-11-30T04:12:13.577Z,0.00
2017-11-30T04:13:19.625Z,0.00
2017-11-30T04:14:25.914Z,0.00
2017-11-30T04:15:31.786Z,0.00
2017-11-30T04:16:37.753Z,0.00
2017-11-30T04:17:43.807Z,0.00
2017-11-30T04:18:49.841Z,0.00
2017-11-30T04:19:55.914Z,0.00
2017-11-30T04:21:01.946Z,0.00
2017-11-30T04:22:07.981Z,0.00
2017-11-30T04:23:14.148Z,0.00
2017-11-30T04:24:20.085Z,0.00
2017-11-30T04:25:26.133Z,0.00
2017-11-30T04:26:32.170Z,0.00
2017-11-30T04:27:38.222Z,0.00
2017-11-30T04:28:44.268Z,0.00
2017-11-30T04:29:50.326Z,0.00
2017-11-30T04:30:56.358Z,0.00
2017-11-30T04:32:02.408Z,0.00
2017-11-30T04:33:08.462Z,0.00
2017-11-30T04:34:14.617Z,0.00
2017-11-30T04:35:20.583Z,0.00
2017-11-30T04:36:26.612Z,0.00
2017-11-30T04:37:32.660Z,0.00
2017-11-30T04:38:38.711Z,0.00
2017-11-30T04:39:44.768Z,0.00
2017-11-30T04:40:50.811Z,0.00
2017-11-30T04:41:57.025Z,0.00
2017-11-30T04:43:03.019Z,0.00
2017-11-30T04:44:09.046Z,0.00
2017-11-30T04:45:15.022Z,0.00
2017-11-30T04:46:21.058Z,0.00
2017-11-30T04:47:27.200Z,0.00
2017-11-30T04:48:33.317Z,0.00
2017-11-30T04:49:39.551Z,0.00
2017-11-30T04:50:45.242Z,0.00
2017-11-30T04:51:51.314Z,0.00
2017-11-30T04:52:57.353Z,0.00
2017-11-30T04:54:03.402Z,0.00
2017-11-30T04:55:09.555Z,0.00
2017-11-30T04:56:15.495Z,0.00
2017-11-30T04:57:21.635Z,0.00
2017-11-30T04:58:27.596Z,0.00
2017-11-30T04:59:33.661Z,0.00
2017-11-30T05:00:39.682Z,0.00
2017-11-30T05:01:45.831Z,0.00
2017-11-30T05:02:51.802Z,0.00
2017-11-30T05:03:57.926Z,0.00
2017-11-30T05:05:03.908Z,0.00
2017-11-30T05:06:10.026Z,0.00
2017-11-30T05:07:16.008Z,0.00
2017-11-30T05:08:22.135Z,0.00
2017-11-30T05:09:28.246Z,0.00
2017-11-30T05:10:34.162Z,0.00
2017-11-30T05:11:41.205Z,0.00
2017-11-30T05:12:46.274Z,0.00
2017-11-30T05:13:52.313Z,0.00
2017-11-30T05:14:58.596Z,0.00
2017-11-30T05:16:04.977Z,0.00
2017-11-30T05:17:10.472Z,0.00
2017-11-30T05:18:16.537Z,0.00
2017-11-30T05:19:22.866Z,0.00
2017-11-30T05:20:28.923Z,0.00
2017-11-30T05:21:34.716Z,0.00
2017-11-30T05:22:40.861Z,0.00
2017-11-30T05:23:46.871Z,0.00
2017-11-30T05:24:53.138Z,0.00
2017-11-30T05:25:58.916Z,0.00
2017-11-30T05:27:05.567Z,0.00
2017-11-30T05:28:11.053Z,0.00
2017-11-30T05:29:17.155Z,0.00
2017-11-30T05:30:23.383Z,0.00
2017-11-30T05:31:29.328Z,0.00
2017-11-30T05:32:35.256Z,0.00
2017-11-30T05:33:41.424Z,0.00
2017-11-30T05:34:47.395Z,0.00
2017-11-30T05:35:53.521Z,0.00
2017-11-30T05:36:59.680Z,0.00
2017-11-30T05:38:05.545Z,0.00
2017-11-30T05:39:11.770Z,0.00
2017-11-30T05:40:17.999Z,0.00
2017-11-30T05:41:23.791Z,0.00
2017-11-30T05:42:29.797Z,0.00
2017-11-30T05:43:35.853Z,0.00
2017-11-30T05:44:42.037Z,0.00
2017-11-30T05:45:47.989Z,0.00
2017-11-30T05:46:54.046Z,0.00
2017-11-30T05:48:00.098Z,0.00
2017-11-30T05:49:06.311Z,0.00
2017-11-30T05:50:12.244Z,0.00
2017-11-30T05:51:18.332Z,0.00
2017-11-30T05:52:24.341Z,0.00
2017-11-30T05:53:30.509Z,0.00
2017-11-30T05:54:36.994Z,0.00
2017-11-30T05:55:42.894Z,0.00
2017-11-30T05:56:48.681Z,0.00
2017-11-30T05:57:55.238Z,0.00
2017-11-30T05:59:00.857Z,0.00
2017-11-30T06:00:06.839Z,0.00
2017-11-30T06:01:12.840Z,0.00
2017-11-30T06:02:18.899Z,0.00
2017-11-30T06:03:24.990Z,0.00
2017-11-30T06:04:31.124Z,0.00
2017-11-30T06:05:37.428Z,0.00
2017-11-30T06:06:43.156Z,0.00
2017-11-30T06:07:49.344Z,0.00
2017-11-30T06:08:55.276Z,0.00
2017-11-30T06:10:01.355Z,0.00
2017-11-30T06:11:07.497Z,0.00
2017-11-30T06:12:13.471Z,0.00
2017-11-30T06:13:19.527Z,0.00
2017-11-30T06:14:26.176Z,0.00
2017-11-30T06:15:31.965Z,0.00
2017-11-30T06:16:37.715Z,0.00
2017-11-30T06:17:43.770Z,0.00
2017-11-30T06:18:49.829Z,0.00
2017-11-30T06:19:55.910Z,0.00
2017-11-30T06:21:02.109Z,0.00
2017-11-30T06:22:08.013Z,0.00
2017-11-30T06:23:14.069Z,0.00
2017-11-30T06:24:20.132Z,0.00
2017-11-30T06:25:26.854Z,0.00
2017-11-30T06:26:32.694Z,0.00
2017-11-30T06:27:38.351Z,0.00
2017-11-30T06:28:44.363Z,0.00
2017-11-30T06:29:50.524Z,0.00
2017-11-30T06:30:56.498Z,0.00
2017-11-30T06:32:02.615Z,4.00
2017-11-30T06:33:08.709Z,4.00
2017-11-30T06:34:15.673Z,4.00
2017-11-30T06:35:20.770Z,4.00
2017-11-30T06:36:26.780Z,0.00
2017-11-30T06:37:32.856Z,8.00
2017-11-30T06:38:38.958Z,4.00
2017-11-30T06:39:45.070Z,8.00
2017-11-30T06:40:51.043Z,12.00
2017-11-30T06:41:57.105Z,16.00
2017-11-30T06:43:03.250Z,20.00
2017-11-30T06:44:09.365Z,20.00
2017-11-30T06:45:15.286Z,24.00
2017-11-30T06:46:21.460Z,28.00
2017-11-30T06:47:27.439Z,32.00
2017-11-30T06:48:33.447Z,40.00
2017-11-30T06:49:39.495Z,48.00
2017-11-30T06:50:45.612Z,56.00
2017-11-30T06:51:51.614Z,68.00
2017-11-30T06:52:57.679Z,80.00
2017-11-30T06:54:03.733Z,88.00
2017-11-30T06:55:09.816Z,104.00
2017-11-30T06:56:15.929Z,124.00
2017-11-30T06:57:21.940Z,144.00
2017-11-30T06:58:28.028Z,164.00
2017-11-30T06:59:34.032Z,188.00
2017-11-30T07:00:40.190Z,212.00
2017-11-30T07:01:46.244Z,236.00
2017-11-30T07:02:52.181Z,256.00
2017-11-30T07:03:58.337Z,280.00
2017-11-30T07:05:04.348Z,308.00
2017-11-30T07:06:10.360Z,340.00
2017-11-30T07:07:16.386Z,360.00
2017-11-30T07:08:22.425Z,388.00
2017-11-30T07:09:28.476Z,416.00
2017-11-30T07:10:34.550Z,444.00
2017-11-30T07:11:40.692Z,476.00
2017-11-30T07:12:46.619Z,508.00
2017-11-30T07:13:52.670Z,536.00
2017-11-30T07:14:58.711Z,572.00
2017-11-30T07:16:04.817Z,600.00
2017-11-30T07:17:10.821Z,636.00
2017-11-30T07:18:16.901Z,668.00
2017-11-30T07:19:22.880Z,704.00
2017-11-30T07:20:28.940Z,740.00
2017-11-30T07:21:35.042Z,772.00
2017-11-30T07:22:41.676Z,808.00
2017-11-30T07:23:47.042Z,840.00
2017-11-30T07:24:53.107Z,868.00
2017-11-30T07:25:59.125Z,900.00
2017-11-30T07:27:05.142Z,928.00
2017-11-30T07:28:11.248Z,952.00
2017-11-30T07:29:17.287Z,976.00
2017-11-30T07:30:23.587Z,1008.00
2017-11-30T07:31:29.281Z,1040.00
2017-11-30T07:32:35.406Z,1068.00
2017-11-30T07:33:41.454Z,1100.00
2017-11-30T07:34:47.398Z,1128.00
2017-11-30T07:35:53.560Z,1160.00
2017-11-30T07:36:59.439Z,1188.00
2017-11-30T07:38:05.644Z,1224.00
2017-11-30T07:39:11.521Z,1264.00
2017-11-30T07:40:17.757Z,1312.00
2017-11-30T07:41:23.570Z,1380.00
2017-11-30T07:42:29.616Z,1432.00
2017-11-30T07:43:35.632Z,1472.00
2017-11-30T07:44:41.774Z,1516.00
2017-11-30T07:45:47.829Z,1560.00
2017-11-30T07:46:53.756Z,1596.00
2017-11-30T07:47:59.811Z,1612.00
2017-11-30T07:49:05.850Z,1640.00
2017-11-30T07:50:11.836Z,1684.00
2017-11-30T07:51:17.890Z,1744.00
2017-11-30T07:52:23.910Z,1816.00
2017-11-30T07:53:30.225Z,1908.00
2017-11-30T07:54:36.017Z,2016.00
2017-11-30T07:55:42.043Z,2164.00
2017-11-30T07:56:48.061Z,2300.00
2017-11-30T07:57:54.098Z,2404.00
2017-11-30T07:59:00.270Z,2500.00
2017-11-30T08:00:06.248Z,2544.00
2017-11-30T08:01:12.238Z,2608.00
2017-11-30T08:02:18.259Z,2680.00
2017-11-30T08:03:24.465Z,2792.00
2017-11-30T08:04:30.543Z,2936.00
2017-11-30T08:05:36.401Z,3076.00
2017-11-30T08:06:42.449Z,3220.00
2017-11-30T08:07:49.808Z,3332.00
2017-11-30T08:08:54.638Z,3468.00
2017-11-30T08:10:00.595Z,3580.00
2017-11-30T08:11:06.659Z,3728.00
2017-11-30T08:12:12.696Z,3844.00
2017-11-30T08:13:18.939Z,3912.00
2017-11-30T08:14:24.820Z,4016.00
2017-11-30T08:15:30.853Z,4144.00
2017-11-30T08:16:36.978Z,4252.00
2017-11-30T08:17:42.976Z,4208.00
2017-11-30T08:18:49.028Z,4144.00
2017-11-30T08:19:55.154Z,4176.00
2017-11-30T08:21:01.245Z,4156.00
2017-11-30T08:22:07.323Z,4124.00
2017-11-30T08:23:13.375Z,4092.00
2017-11-30T08:24:19.372Z,4080.00
2017-11-30T08:25:25.654Z,4100.00
2017-11-30T08:26:31.528Z,4156.00
2017-11-30T08:27:37.572Z,4256.00
2017-11-30T08:28:43.723Z,4348.00
2017-11-30T08:29:49.735Z,4372.00
2017-11-30T08:30:55.815Z,4372.00
2017-11-30T08:32:01.867Z,4332.00
2017-11-30T08:33:08.431Z,4360.00
2017-11-30T08:34:14.009Z,4384.00
2017-11-30T08:35:20.112Z,4472.00
2017-11-30T08:36:26.164Z,4532.00
2017-11-30T08:37:32.238Z,4536.00
2017-11-30T08:38:38.328Z,4440.00
2017-11-30T08:39:44.424Z,4608.00
2017-11-30T08:40:50.861Z,4828.00
2017-11-30T08:41:56.537Z,5040.00
2017-11-30T08:43:02.621Z,5180.00
2017-11-30T08:44:08.785Z,5304.00
2017-11-30T08:45:14.828Z,5440.00
2017-11-30T08:46:20.861Z,5568.00
2017-11-30T08:47:26.984Z,5640.00
2017-11-30T08:48:33.028Z,5652.00
2017-11-30T08:49:39.243Z,5688.00
2017-11-30T08:50:45.238Z,5708.00
2017-11-30T08:51:51.289Z,5668.00
2017-11-30T08:52:57.364Z,5704.00
2017-11-30T08:54:03.561Z,5672.00
2017-11-30T08:55:09.542Z,5344.00
2017-11-30T08:56:15.911Z,4868.00
2017-11-30T08:57:21.722Z,4540.00
2017-11-30T08:58:27.806Z,4276.00
2017-11-30T08:59:34.405Z,4056.00
2017-11-30T09:00:40.003Z,3772.00
2017-11-30T09:01:46.072Z,3528.00
2017-11-30T09:02:52.155Z,3316.00
2017-11-30T09:03:58.253Z,3132.00
2017-11-30T09:05:04.333Z,3020.00
2017-11-30T09:06:10.429Z,3040.00
2017-11-30T09:07:16.557Z,2908.00
2017-11-30T09:08:22.572Z,3308.00
2017-11-30T09:09:28.728Z,3664.00
2017-11-30T09:10:34.730Z,3592.00
2017-11-30T09:11:40.872Z,3244.00
2017-11-30T09:12:46.976Z,4068.00
2017-11-30T09:13:52.973Z,4928.00
2017-11-30T09:14:59.131Z,4956.00
2017-11-30T09:16:05.268Z,4880.00
2017-11-30T09:17:11.233Z,4716.00
2017-11-30T09:18:17.350Z,4520.00
2017-11-30T09:19:23.411Z,4420.00
2017-11-30T09:20:29.548Z,4552.00
2017-11-30T09:21:35.626Z,4244.00
2017-11-30T09:22:41.716Z,3632.00
2017-11-30T09:23:47.805Z,3268.00
2017-11-30T09:24:53.949Z,3016.00
2017-11-30T09:26:00.000Z,3020.00
2017-11-30T09:27:06.587Z,3372.00
2017-11-30T09:28:12.156Z,3828.00
2017-11-30T09:29:18.429Z,4356.00
2017-11-30T09:30:24.346Z,4536.00
2017-11-30T09:31:30.475Z,4668.00
2017-11-30T09:32:36.559Z,5052.00
2017-11-30T09:33:42.646Z,4716.00
2017-11-30T09:34:48.740Z,4920.00
2017-11-30T09:35:54.848Z,5556.00
2017-11-30T09:37:01.269Z,5860.00
2017-11-30T09:38:07.046Z,5960.00
2017-11-30T09:39:13.346Z,6240.00
2017-11-30T09:40:19.423Z,6536.00
2017-11-30T09:41:25.357Z,6960.00
2017-11-30T09:42:32.318Z,7068.00
2017-11-30T09:43:37.580Z,6700.00
2017-11-30T09:44:43.699Z,7764.00
2017-11-30T09:45:49.900Z,8520.00
2017-11-30T09:46:56.787Z,8352.00
2017-11-30T09:48:02.549Z,7360.00
2017-11-30T09:49:08.838Z,7372.00
2017-11-30T09:50:14.821Z,6460.00
2017-11-30T09:51:20.452Z,4956.00
2017-11-30T09:52:26.565Z,4560.00
2017-11-30T09:53:32.828Z,5060.00
2017-11-30T09:54:39.319Z,5920.00
2017-11-30T09:55:45.028Z,6792.00
2017-11-30T09:56:51.635Z,7184.00
2017-11-30T09:57:57.158Z,6808.00
2017-11-30T09:59:03.270Z,7704.00
2017-11-30T10:00:10.040Z,9356.00
2017-11-30T10:01:15.608Z,10348.00
2017-11-30T10:02:21.774Z,10704.00
2017-11-30T10:03:27.789Z,10600.00
2017-11-30T10:04:34.032Z,9020.00
2017-11-30T10:05:40.092Z,7744.00
2017-11-30T10:06:46.291Z,6828.00
2017-11-30T10:07:52.996Z,6040.00
2017-11-30T10:08:58.562Z,5644.00
2017-11-30T10:10:04.614Z,5544.00
2017-11-30T10:11:10.836Z,5728.00
2017-11-30T10:12:17.213Z,5752.00
2017-11-30T10:13:23.138Z,6288.00
2017-11-30T10:14:29.141Z,7472.00
2017-11-30T10:15:35.443Z,8792.00
2017-11-30T10:16:42.010Z,9440.00
2017-11-30T10:17:47.565Z,10092.00
2017-11-30T10:18:53.685Z,10840.00
2017-11-30T10:19:59.828Z,12220.00
2017-11-30T10:21:06.094Z,12952.00
2017-11-30T10:22:12.170Z,13564.00
2017-11-30T10:23:18.580Z,13072.00
2017-11-30T10:24:24.474Z,12552.00
2017-11-30T10:25:30.635Z,11892.00
2017-11-30T10:26:36.775Z,9536.00
2017-11-30T10:27:43.383Z,8932.00
2017-11-30T10:28:49.767Z,9056.00
2017-11-30T10:29:55.245Z,8940.00
2017-11-30T10:31:02.006Z,9508.00
2017-11-30T10:32:07.708Z,10012.00
2017-11-30T10:33:14.637Z,9436.00
2017-11-30T10:34:20.453Z,8944.00
2017-11-30T10:35:26.676Z,9044.00
2017-11-30T10:36:32.205Z,10168.00
2017-11-30T10:37:38.340Z,9696.00
2017-11-30T10:38:44.839Z,8672.00
2017-11-30T10:39:50.653Z,8200.00
2017-11-30T10:40:56.843Z,7588.00
2017-11-30T10:42:02.958Z,7232.00
2017-11-30T10:43:09.471Z,7316.00
2017-11-30T10:44:15.300Z,7404.00
2017-11-30T10:45:21.451Z,7416.00
2017-11-30T10:46:27.561Z,7328.00
2017-11-30T10:47:33.737Z,7308.00
2017-11-30T10:48:39.878Z,7232.00
2017-11-30T10:49:46.640Z,6984.00
2017-11-30T10:50:52.718Z,7248.00
2017-11-30T10:51:58.868Z,8268.00
2017-11-30T10:53:04.493Z,9320.00
2017-11-30T10:54:10.598Z,10328.00
2017-11-30T10:55:17.395Z,10576.00
2017-11-30T10:56:23.475Z,10228.00
2017-11-30T10:57:29.700Z,9976.00
2017-11-30T10:58:35.453Z,11168.00
2017-11-30T10:59:41.376Z,10112.00
2017-11-30T11:00:47.517Z,9632.00
2017-11-30T11:01:53.715Z,9444.00
2017-11-30T11:03:00.383Z,9436.00
2017-11-30T11:04:06.028Z,9212.00
2017-11-30T11:05:12.182Z,8584.00
2017-11-30T11:06:18.530Z,8428.00
2017-11-30T11:07:24.497Z,7912.00
2017-11-30T11:08:30.756Z,7080.00
2017-11-30T11:09:37.390Z,6712.00
2017-11-30T11:10:43.101Z,6604.00
2017-11-30T11:11:49.252Z,7172.00
2017-11-30T11:12:55.406Z,7644.00
2017-11-30T11:14:01.943Z,8120.00
2017-11-30T11:15:08.220Z,8616.00
2017-11-30T11:16:14.301Z,7664.00
2017-11-30T11:17:19.883Z,8224.00
2017-11-30T11:18:26.032Z,8604.00
2017-11-30T11:19:32.202Z,7600.00
2017-11-30T11:20:38.369Z,7788.00
2017-11-30T11:21:44.615Z,8516.00
2017-11-30T11:22:50.702Z,8540.00
2017-11-30T11:23:56.946Z,10916.00
2017-11-30T11:25:02.947Z,12912.00
2017-11-30T11:26:09.111Z,12072.00
2017-11-30T11:27:15.379Z,11384.00
2017-11-30T11:28:21.437Z,16160.00
2017-11-30T11:29:27.629Z,12212.00
2017-11-30T11:30:34.438Z,21888.00
2017-11-30T11:31:40.006Z,19200.00
2017-11-30T11:32:46.162Z,10620.00
2017-11-30T11:33:52.318Z,8800.00
2017-11-30T11:34:58.502Z,8096.00
2017-11-30T11:36:04.621Z,8756.00
2017-11-30T11:37:10.796Z,9844.00
2017-11-30T11:38:16.953Z,9904.00
2017-11-30T11:39:23.860Z,9812.00
2017-11-30T11:40:29.319Z,12096.00
2017-11-30T11:41:35.539Z,10968.00
2017-11-30T11:42:41.632Z,10100.00
2017-11-30T11:43:47.797Z,10056.00
2017-11-30T11:44:54.905Z,11296.00
2017-11-30T11:46:00.137Z,12152.00
2017-11-30T11:47:06.910Z,12904.00
2017-11-30T11:48:12.509Z,11884.00
2017-11-30T11:49:18.678Z,9268.00
2017-11-30T11:50:24.901Z,8428.00
2017-11-30T11:51:31.314Z,7912.00
2017-11-30T11:52:37.361Z,6708.00
2017-11-30T11:53:43.953Z,6416.00
2017-11-30T11:54:49.770Z,6332.00
2017-11-30T11:55:55.840Z,6436.00
2017-11-30T11:57:01.919Z,6340.00
2017-11-30T11:58:08.675Z,6184.00
2017-11-30T11:59:14.264Z,6276.00
2017-11-30T12:00:20.974Z,5636.00
2017-11-30T12:01:26.575Z,5236.00
2017-11-30T12:02:33.265Z,5608.00
2017-11-30T12:03:38.877Z,5916.00
2017-11-30T12:04:45.069Z,5980.00
2017-11-30T12:05:51.234Z,6488.00
2017-11-30T12:06:57.868Z,8056.00
2017-11-30T12:08:04.005Z,8732.00
2017-11-30T12:09:09.672Z,8176.00
2017-11-30T12:10:16.678Z,7872.00
2017-11-30T12:11:21.995Z,8064.00
2017-11-30T12:12:28.155Z,8632.00
2017-11-30T12:13:34.374Z,8824.00
2017-11-30T12:14:41.105Z,8172.00
2017-11-30T12:15:46.983Z,8092.00
2017-11-30T12:16:52.892Z,7088.00
2017-11-30T12:17:59.487Z,6880.00
2017-11-30T12:19:05.127Z,6684.00
2017-11-30T12:20:11.287Z,6400.00
2017-11-30T12:21:17.883Z,5348.00
2017-11-30T12:22:23.674Z,4528.00
2017-11-30T12:23:30.340Z,4708.00
2017-11-30T12:24:35.982Z,5196.00
2017-11-30T12:25:42.150Z,4896.00
2017-11-30T12:26:48.231Z,4732.00
2017-11-30T12:27:54.432Z,5004.00
2017-11-30T12:29:00.660Z,5684.00
2017-11-30T12:30:06.818Z,7404.00
2017-11-30T12:31:12.915Z,7972.00
2017-11-30T12:32:19.045Z,8212.00
2017-11-30T12:33:25.361Z,7708.00
2017-11-30T12:34:31.402Z,6848.00
2017-11-30T12:35:37.502Z,5364.00
2017-11-30T12:36:43.630Z,4784.00
2017-11-30T12:37:49.781Z,4792.00
2017-11-30T12:38:56.460Z,4540.00
2017-11-30T12:40:02.053Z,4580.00
2017-11-30T12:41:08.228Z,4620.00
2017-11-30T12:42:14.355Z,4560.00
2017-11-30T12:43:20.504Z,4396.00
2017-11-30T12:44:27.214Z,3940.00
2017-11-30T12:45:32.814Z,3740.00
2017-11-30T12:46:39.473Z,3552.00
2017-11-30T12:47:45.154Z,3356.00
2017-11-30T12:48:51.898Z,3052.00
2017-11-30T12:49:57.390Z,2736.00
2017-11-30T12:51:03.606Z,2468.00
2017-11-30T12:52:09.659Z,2272.00
2017-11-30T12:53:16.328Z,2164.00
2017-11-30T12:54:21.922Z,2016.00
2017-11-30T12:55:28.627Z,1920.00
2017-11-30T12:56:34.279Z,1924.00
2017-11-30T12:57:40.506Z,2008.00
2017-11-30T12:58:47.015Z,2088.00
2017-11-30T12:59:52.584Z,2340.00
2017-11-30T13:00:59.357Z,2860.00
2017-11-30T13:02:05.014Z,3080.00
2017-11-30T13:03:11.000Z,2892.00
2017-11-30T13:04:17.224Z,2884.00
2017-11-30T13:05:23.239Z,3532.00
2017-11-30T13:06:29.954Z,4412.00
2017-11-30T13:07:35.638Z,5524.00
2017-11-30T13:08:41.724Z,6120.00
2017-11-30T13:09:47.937Z,6164.00
2017-11-30T13:10:53.937Z,5892.00
2017-11-30T13:12:00.839Z,5756.00
2017-11-30T13:13:06.838Z,5640.00
2017-11-30T13:14:12.442Z,5480.00
2017-11-30T13:15:18.614Z,5332.00
2017-11-30T13:16:24.547Z,5260.00
2017-11-30T13:17:31.238Z,5292.00
2017-11-30T13:18:36.813Z,5300.00
2017-11-30T13:19:42.960Z,5276.00
2017-11-30T13:20:49.075Z,5264.00
2017-11-30T13:21:55.335Z,5220.00
2017-11-30T13:23:01.567Z,5092.00
2017-11-30T13:24:07.550Z,4976.00
2017-11-30T13:25:13.749Z,4828.00
2017-11-30T13:26:20.340Z,4892.00
2017-11-30T13:27:25.944Z,4976.00
2017-11-30T13:28:32.569Z,5044.00
2017-11-30T13:29:38.774Z,5120.00
2017-11-30T13:30:44.413Z,5100.00
2017-11-30T13:31:50.763Z,5016.00
2017-11-30T13:32:56.838Z,4876.00
2017-11-30T13:34:02.858Z,4592.00
2017-11-30T13:35:08.846Z,4376.00
2017-11-30T13:36:14.988Z,4400.00
2017-11-30T13:37:21.177Z,4392.00
2017-11-30T13:38:27.734Z,4428.00
2017-11-30T13:39:33.530Z,4536.00
2017-11-30T13:40:40.123Z,4772.00
2017-11-30T13:41:45.642Z,5240.00
2017-11-30T13:42:52.044Z,5712.00
2017-11-30T13:43:58.461Z,6048.00
2017-11-30T13:45:04.095Z,6292.00
2017-11-30T13:46:10.696Z,6500.00
2017-11-30T13:47:16.478Z,6720.00
2017-11-30T13:48:22.478Z,6792.00
2017-11-30T13:49:28.597Z,6760.00
2017-11-30T13:50:34.750Z,6616.00
2017-11-30T13:51:40.902Z,6316.00
2017-11-30T13:52:47.053Z,5764.00
2017-11-30T13:53:53.160Z,5500.00
2017-11-30T13:54:59.347Z,5268.00
2017-11-30T13:56:05.473Z,4852.00